Latest Coastal Weather Observations for Hindmarsh Island

IDS60701

Issued at 4:21 am CDT Sunday 21 December 2014 (issued every 10 minutes, with the page automatically refreshed every 10 minutes)

About coastal observations | Map of coastal stations | Coastal observations for SA | Marine services | Other Formats
Station Details ID: 023894 Name: HINDMARSH ISLAND AWS Lat: -35.52 Lon: 138.82 Height: 11.0 m
Data from the previous 72 hours. | See also: Recent months at Hindmarsh Island
Date/Time
CDT
Temp

°C
Wind Pressure Rain
since 9am
mm
Weather Cloud Vis
km
Sea
Height
m
Swell
Dir
 
Speed
knots
Gust
knots
hPa Trend Height
m
Period
s
Dir
21/04:00am 15.0 N 6 7 1011.8 - 0.0 - - - - - - -
21/03:30am 15.2 NNW 5 6 1012.2 - 0.0 - - - - - - -
21/03:00am 15.4 NNW 5 5 1012.3 - 0.0 - - - - - - -
21/02:30am 15.1 NW 5 5 1013.0 - 0.0 - - - - - - -
21/02:00am 15.0 NW 5 7 1013.5 - 0.0 - - - - - - -
21/01:30am 15.3 N 5 6 1013.3 - 0.0 - - - - - - -
21/01:00am 15.5 NNW 4 5 1013.4 - 0.0 - - - - - - -
21/12:30am 16.1 N 4 5 1013.9 - 0.0 - - - - - - -
21/12:00am 16.3 NE 4 5 1014.2 - 0.0 - - - - - - -
 
Date/Time
CDT
Temp

°C
Wind Pressure Rain
since 9am
mm
Weather Cloud Vis
km
Sea
Height
m
Swell
Dir
 
Speed
knots
Gust
knots
hPa Trend Height
m
Period
s
Dir
20/11:30pm 16.3 E 4 5 1014.5 - 0.0 - - - - - - -
20/11:00pm 16.5 ESE 6 7 1014.7 - 0.0 - - - - - - -
20/10:30pm 17.4 SSE 7 8 1015.1 - 0.0 - - - - - - -
20/10:00pm 17.5 SSE 8 9 1015.4 - 0.0 - - - - - - -
20/09:30pm 17.7 SSE 9 10 1015.3 - 0.0 - - - - - - -
20/09:00pm 17.8 SSE 12 14 1015.2 - 0.0 - - - - - - -
20/08:30pm 18.0 SSE 13 14 1015.2 - 0.0 - - - - - - -
20/08:00pm 18.5 SSE 14 16 1015.1 - 0.0 - - - - - - -
20/07:30pm 19.0 SSE 14 17 1015.0 - 0.0 - - - - - - -
20/07:00pm 19.3 SSE 14 17 1014.9 - 0.0 - - - - - - -
20/06:30pm 19.8 S 14 16 1015.0 - 0.0 - - - - - - -
20/06:00pm 20.1 SSE 15 18 1014.7 - 0.0 - - - - - - -
20/05:30pm 20.5 S 15 18 1015.0 - 0.0 - - - - - - -
20/05:00pm 20.5 S 16 19 1015.2 - 0.0 - - - - - - -
20/04:30pm 20.7 SSE 15 17 1015.5 - 0.0 - - - - - - -
20/04:00pm 21.0 SSE 14 18 1015.6 - 0.0 - - - - - - -
20/03:30pm 21.3 SSE 15 18 1016.0 - 0.0 - - - - - - -
20/03:00pm 21.2 SSE 15 18 1016.3 - 0.0 - - - - - - -
20/02:30pm 20.9 SSE 16 19 1016.8 - 0.0 - - - - - - -
20/02:00pm 21.2 SSE 16 19 1017.2 - 0.0 - - - - - - -
20/01:30pm 20.6 SSE 16 19 1017.8 - 0.0 - - - - - - -
20/01:00pm 21.0 SSE 15 17 1018.2 - 0.0 - - - - - - -
20/12:30pm 20.3 SSE 15 18 1018.5 - 0.0 - - - - - - -
20/12:00pm 21.7 SE 11 19 1018.7 - 0.0 - - - - - - -
20/11:30am 21.6 SE 8 10 1019.2 - 0.0 - - - - - - -
20/11:00am 20.7 ESE 8 11 1019.3 - 0.0 - - - - - - -
20/10:30am 20.4 ESE 6 9 1019.7 - 0.0 - - - - - - -
20/10:00am 20.6 NE 8 11 1019.9 - 0.0 - - - - - - -
20/09:30am 19.4 NE 9 12 1020.0 - 0.0 - - - - - - -
20/09:00am 17.9 NNE 9 11 1020.1 - 0.0 Fine Mostly clear 12 - - - -
20/08:30am 17.1 NNE 9 11 1020.0 - 0.0 - - - - - - -
20/08:00am 16.3 NNE 9 11 1019.9 - 0.0 - - - - - - -
20/07:30am 15.1 N 9 11 1019.7 - 0.0 - - - - - - -
20/07:00am 14.4 N 7 9 1019.6 - 0.0 - - - - - - -
20/06:30am 13.5 N 6 8 1019.3 - 0.0 - - - - - - -
20/06:00am 13.1 N 6 7 1018.8 - 0.0 - - - - - - -
20/05:30am 13.3 N 5 6 1018.7 - 0.0 - - - - - - -
20/05:00am 13.5 N 5 6 1018.4 - 0.0 - - - - - - -
20/04:30am 13.2 ENE 7 8 1018.3 - 0.0 - - - - - - -
20/04:00am 13.7 ENE 6 7 1018.4 - 0.0 - - - - - - -
20/03:30am 13.6 ENE 6 7 1018.4 - 0.0 - - - - - - -
20/03:00am 13.7 E 6 7 1018.6 - 0.0 - - - - - - -
20/02:30am 14.4 E 6 7 1019.0 - 0.0 - - - - - - -
20/02:00am 15.8 SE 8 9 1019.4 - 0.0 - - - - - - -
20/01:30am 15.9 SSE 8 10 1019.9 - 0.0 - - - - - - -
20/01:00am 16.1 SSE 9 11 1020.2 - 0.0 - - - - - - -
20/12:30am 16.1 SSE 10 11 1020.4 - 0.0 - - - - - - -
20/12:00am 16.2 SSE 9 12 1020.5 - 0.0 - - - - - - -
 
Date/Time
CDT
Temp

°C
Wind Pressure Rain
since 9am
mm
Weather Cloud Vis
km
Sea
Height
m
Swell
Dir
 
Speed
knots
Gust
knots
hPa Trend Height
m
Period
s
Dir
19/11:30pm 16.3 SSE 10 13 1020.7 - 0.0 - - - - - - -
19/11:00pm 16.4 SSE 10 13 1021.0 - 0.0 - - - - - - -
19/10:30pm 16.4 S 11 14 1021.2 - 0.0 - - - - - - -
19/10:00pm 16.5 S 12 14 1021.2 - 0.0 - - - - - - -
19/09:30pm 16.6 S 12 15 1021.1 - 0.0 - - - - - - -
19/09:00pm 16.6 S 12 16 1020.8 - 0.0 - - - - - - -
19/08:30pm 17.0 S 13 16 1020.9 - 0.0 - - - - - - -
19/08:00pm 17.0 SSW 14 16 1020.9 - 0.0 - - - - - - -
19/07:30pm 17.3 S 15 19 1020.9 - 0.0 - - - - - - -
19/07:00pm 17.7 SSW 15 19 1020.6 - 0.0 - - - - - - -
19/06:30pm 18.5 S 14 18 1020.4 - 0.0 - - - - - - -
19/06:00pm 18.8 S 16 19 1019.9 - 0.0 - - - - - - -
19/05:30pm 19.1 S 15 19 1020.1 - 0.0 - - - - - - -
19/05:00pm 19.5 S 15 19 1020.1 - 0.0 - - - - - - -
19/04:30pm 19.6 S 15 18 1020.2 - 0.0 - - - - - - -
19/04:00pm 19.9 S 14 17 1020.3 - 0.0 - - - - - - -
19/03:30pm 19.9 S 14 17 1020.4 - 0.0 - - - - - - -
19/03:00pm 20.4 S 13 17 1020.4 - 0.0 - - - - - - -
19/02:30pm 20.3 S 13 18 1020.5 - 0.0 - - - - - - -
19/02:00pm 20.4 S 14 17 1020.6 - 0.0 - - - - - - -
19/01:30pm 20.8 S 13 17 1020.8 - 0.0 - - - - - - -
19/01:00pm 20.0 S 12 17 1021.0 - 0.0 - - - - - - -
19/12:30pm 20.0 S 13 17 1021.0 - 0.0 - - - - - - -
19/12:00pm 19.9 SSW 12 15 1021.0 - 0.0 - - - - - - -
19/11:30am 19.7 SSW 12 16 1021.0 - 0.0 - - - - - - -
19/11:00am 19.7 SSW 11 15 1020.8 - 0.0 - - - - - - -
19/10:30am 19.3 S 9 13 1020.7 - 0.0 - - - - - - -
19/10:00am 18.7 S 9 13 1020.7 - 0.0 - - - - - - -
19/09:30am 19.0 S 9 13 1020.4 - 0.0 - - - - - - -
19/09:00am 17.7 S 10 13 1020.0 - 0.0 Haze Partly cloudy 8 - - - -
19/08:30am 17.9 S 11 15 1019.7 - 0.0 - - - - - - -
19/08:00am 17.7 S 10 13 1019.3 - 0.0 - - - - - - -
19/07:30am 17.0 S 9 13 1018.9 - 0.0 - - - - - - -
19/07:00am 16.6 S 9 12 1018.5 - 0.0 - - - - - - -
19/06:30am 16.3 S 10 13 1018.1 - 0.0 - - - - - - -
19/06:00am 15.9 S 11 14 1017.8 - 0.0 - - - - - - -
19/05:30am 15.8 SSW 10 13 1017.8 - 0.0 - - - - - - -
19/05:00am 15.4 SSW 10 13 1017.6 - 0.0 - - - - - - -
19/04:30am 15.4 SSW 11 15 1017.4 - 0.0 - - - - - - -
19/04:00am 15.5 SSW 11 14 1017.3 - 0.0 - - - - - - -
19/03:30am 15.6 SSW 12 15 1017.2 - 0.0 - - - - - - -
19/03:00am 15.7 SSW 13 15 1017.3 - 0.0 - - - - - - -
19/02:30am 15.8 SSW 15 18 1017.3 - 0.0 - - - - - - -
19/02:00am 16.2 S 13 15 1017.4 - 0.0 - - - - - - -
19/01:30am 15.9 SSW 12 15 1017.4 - 0.0 - - - - - - -
19/01:00am 16.0 SSW 14 17 1017.4 - 0.0 - - - - - - -
19/12:30am 15.9 SSW 12 14 1017.3 - 0.0 - - - - - - -
19/12:00am 16.0 SW 15 18 1017.3 - 0.0 - - - - - - -
 
Date/Time
CDT
Temp

°C
Wind Pressure Rain
since 9am
mm
Weather Cloud Vis
km
Sea
Height
m
Swell
Dir
 
Speed
knots
Gust
knots
hPa Trend Height
m
Period
s
Dir
18/11:30pm 16.3 SSW 16 20 1017.1 - 0.0 - - - - - - -
18/11:00pm 16.2 SSW 16 19 1017.1 - 0.0 - - - - - - -
18/10:30pm 16.6 SSW 16 21 1016.9 - 0.0 - - - - - - -
18/10:00pm 16.4 SSW 15 18 1016.7 - 0.0 - - - - - - -
18/09:30pm 16.5 SSW 15 18 1016.3 - 0.0 - - - - - - -
18/09:00pm 16.6 SW 14 16 1016.1 - 0.0 - - - - - - -
18/08:30pm 16.5 SSW 18 23 1015.8 - 0.0 - - - - - - -
18/08:00pm 17.0 SSW 17 21 1015.8 - 0.0 - - - - - - -
18/07:30pm 17.6 SW 18 23 1015.2 - 0.0 - - - - - - -
18/07:00pm 18.1 SSW 19 25 1014.8 - 0.0 - - - - - - -
18/06:30pm 18.5 SW 20 28 1014.5 - 0.0 - - - - - - -
18/06:00pm 18.8 SSW 23 27 1013.9 - 0.0 - - - - - - -
18/05:30pm 18.6 SSW 22 26 1013.7 - 0.0 - - - - - - -
18/05:00pm 19.4 SW 21 27 1013.3 - 0.0 - - - - - - -
18/04:30pm 19.4 SSW 22 27 1013.2 - 0.0 - - - - - - -
18/04:00pm 19.1 SSW 23 28 1012.9 - 0.0 - - - - - - -
18/03:30pm 20.7 SSW 22 29 1012.8 - 0.0 - - - - - - -
18/03:00pm 20.9 SSW 23 28 1012.2 - 0.0 - - - - - - -
18/02:30pm 21.5 SSW 21 27 1012.0 - 0.0 - - - - - - -
18/02:00pm 20.7 SW 21 26 1012.0 - 0.0 - - - - - - -
18/01:30pm 19.4 SW 21 25 1012.0 - 0.0 - - - - - - -
18/01:00pm 19.3 SW 20 24 1011.8 - 0.0 - - - - - - -
18/12:30pm 19.0 SW 22 26 1011.7 - 0.0 - - - - - - -
18/12:01pm 16.5 WSW 19 29 1011.5 - 0.0 - - - - - - -
18/12:00pm 16.4 SW 22 29 1011.5 - 0.0 - - - - - - -
18/11:52am 16.5 SW 25 35 1011.5 - 0.0 - - - - - - -
18/11:30am 17.9 SW 31 37 1010.6 - 0.0 - - - - - - -
18/11:28am 18.3 SW 31 37 1010.6 - 0.0 - - - - - - -
18/11:24am 20.4 SW 19 30 1010.6 - 0.0 - - - - - - -
18/11:00am 21.6 W 18 25 1010.6 - 0.0 - - - - - - -
18/10:30am 20.8 W 17 24 1010.6 - 0.0 - - - - - - -
18/10:00am 18.8 W 12 17 1010.5 - 0.0 - - - - - - -
18/09:30am 17.3 W 19 26 1010.5 - 0.0 - - - - - - -
18/09:00am 18.6 W 14 19 1009.8 - 0.0 Haze Cloudy 6 - - - -
18/08:33am 18.8 W 15 25 1009.7 - 0.0 - - - - - - -
18/08:30am 19.5 W 13 20 1009.6 - 0.0 - - - - - - -
18/08:00am 17.9 WNW 11 14 1009.3 - 0.0 - - - - - - -
18/07:30am 16.9 WNW 11 14 1009.0 - 0.0 - - - - - - -
18/07:00am 15.1 NW 11 14 1008.7 - 0.0 - - - - - - -
18/06:30am 14.5 NW 9 11 1008.7 - 0.0 - - - - - - -
18/06:00am 13.8 NW 9 12 1008.3 - 0.0 - - - - - - -
18/05:30am 12.5 NNW 5 7 1008.2 - 0.0 - - - - - - -
18/05:00am 12.4 NNW 6 8 1007.8 - 0.0 - - - - - - -
18/04:30am 12.4 N 7 7 1007.8 - 0.0 - - - - - - -

Other Formats:

Comma delimited format used in spreadsheet applications
http://www.bom.gov.au/fwo/IDS60701/IDS60701.94677.axf

JavaScript Object Notation format (JSON) in row-major order
http://www.bom.gov.au/fwo/IDS60701/IDS60701.94677.json